Time;durP1;ratioP1;P1;durP2;ratioP2;P2;SDS_P1;SDS_P2;PMS_P1;PMS_P2;Temp;Humidity;BMP_temperature;BMP_pressure;BME280_temperature;BME280_humidity;BME280_pressure;Samples;Min_cycle;Max_cycle;Signal;HPM_P1;HPM_P2
2023/11/17 00:01:11;;;;;;;8.02;5.00;;;;;;;8.06;50.18;101085.06;5063278;28;20120;-83
2023/11/17 00:03:40;;;;;;;8.20;5.00;;;;;;;8.04;50.41;101092.47;5065417;28;20044;-83
2023/11/17 00:06:08;;;;;;;7.15;5.03;;;;;;;8.01;50.39;101099.03;5048777;28;20045;-83
2023/11/17 00:08:36;;;;;;;8.30;4.97;;;;;;;8.03;50.37;101099.75;5065139;28;20132;-83
2023/11/17 00:11:04;;;;;;;9.15;5.40;;;;;;;8.02;50.15;101114.38;5066235;28;20315;-84
2023/11/17 00:13:32;;;;;;;7.72;4.85;;;;;;;8.00;50.11;101110.91;5068536;28;20286;-83
2023/11/17 00:16:02;;;;;;;9.43;5.40;;;;;;;8.01;50.22;101117.25;5064418;28;20061;-84
2023/11/17 00:18:30;;;;;;;9.65;5.72;;;;;;;7.98;50.14;101117.44;5050678;28;20049;-82
2023/11/17 00:20:58;;;;;;;8.77;5.55;;;;;;;7.95;50.14;101116.69;5069031;28;20143;-83
2023/11/17 00:23:27;;;;;;;7.18;5.53;;;;;;;7.92;50.53;101118.78;5051196;28;20052;-83
2023/11/17 00:25:55;;;;;;;7.90;4.90;;;;;;;7.93;49.92;101132.25;5044726;28;20055;-83
2023/11/17 00:28:23;;;;;;;8.23;5.95;;;;;;;7.91;50.07;101136.97;5070781;28;20048;-85
2023/11/17 00:30:52;;;;;;;9.10;5.20;;;;;;;7.91;50.15;101139.69;5047036;28;20098;-84
2023/11/17 00:33:22;;;;;;;8.50;4.72;;;;;;;7.91;50.20;101139.69;5051093;28;20048;-83
2023/11/17 00:35:49;;;;;;;8.00;4.90;;;;;;;7.89;49.86;101140.78;5049581;28;20113;-84
2023/11/17 00:38:17;;;;;;;7.63;5.18;;;;;;;7.88;50.18;101139.91;5065284;28;20076;-84
2023/11/17 00:40:45;;;;;;;9.27;5.25;;;;;;;7.86;50.31;101139.13;5051074;28;20102;-85
2023/11/17 00:43:14;;;;;;;7.28;4.90;;;;;;;7.85;50.16;101142.84;5062115;28;20060;-84
2023/11/17 00:45:43;;;;;;;7.20;5.07;;;;;;;7.85;50.33;101141.97;5049625;28;20041;-85
2023/11/17 00:48:11;;;;;;;7.90;4.93;;;;;;;7.85;50.23;101150.16;5047327;28;20423;-84
2023/11/17 00:50:41;;;;;;;7.18;4.88;;;;;;;7.84;50.02;101148.44;5047644;28;20045;-84
2023/11/17 00:53:11;;;;;;;7.30;5.03;;;;;;;7.83;50.04;101157.59;5065241;28;20056;-84
2023/11/17 00:55:39;;;;;;;7.60;4.85;;;;;;;7.82;49.89;101158.56;5051281;28;20064;-84
2023/11/17 00:58:09;;;;;;;7.68;4.90;;;;;;;7.81;50.46;101165.88;5067176;28;20109;-84
2023/11/17 01:00:37;;;;;;;7.25;4.63;;;;;;;7.81;50.14;101162.25;5068388;28;20076;-84
2023/11/17 01:03:05;;;;;;;7.53;4.40;;;;;;;7.78;50.19;101160.63;5067797;28;20053;-84
2023/11/17 01:05:34;;;;;;;7.47;4.53;;;;;;;7.79;50.06;101165.09;5069680;28;20049;-83
2023/11/17 01:08:03;;;;;;;7.13;4.72;;;;;;;7.81;50.19;101173.16;5068494;28;20041;-83
2023/11/17 01:10:31;;;;;;;9.70;4.93;;;;;;;7.78;50.37;101178.81;5066710;28;20057;-85
2023/11/17 01:13:00;;;;;;;7.40;4.97;;;;;;;7.76;50.07;101184.41;5051339;28;20500;-83
2023/11/17 01:15:28;;;;;;;7.03;4.65;;;;;;;7.75;50.19;101174.47;5052846;28;20145;-84
2023/11/17 01:17:56;;;;;;;7.05;4.43;;;;;;;7.77;50.04;101193.41;5068139;28;20057;-84
2023/11/17 01:20:24;;;;;;;8.55;5.18;;;;;;;7.74;50.13;101193.66;5076461;28;20051;-84
2023/11/17 01:22:52;;;;;;;7.68;4.35;;;;;;;7.74;49.96;101199.97;5057039;28;20067;-84
2023/11/17 01:25:21;;;;;;;8.40;4.63;;;;;;;7.74;50.08;101207.28;5057899;28;20075;-84
2023/11/17 01:27:50;;;;;;;6.68;4.53;;;;;;;7.73;50.35;101220.03;5058718;28;20049;-83
2023/11/17 01:30:18;;;;;;;7.50;4.90;;;;;;;7.72;49.97;101218.28;5082996;28;20057;-83
2023/11/17 01:32:50;;;;;;;7.45;4.90;;;;;;;7.73;50.04;101230.03;5090566;28;20044;-84
2023/11/17 01:35:18;;;;;;;7.90;4.70;;;;;;;7.71;50.02;101229.28;5072592;28;20128;-83
2023/11/17 01:37:46;;;;;;;7.93;4.97;;;;;;;7.69;50.36;101223.94;5065548;28;20059;-83
2023/11/17 01:40:15;;;;;;;8.02;4.63;;;;;;;7.69;49.95;101228.50;5071536;28;20052;-83
2023/11/17 01:42:45;;;;;;;7.63;4.40;;;;;;;7.69;50.07;101233.94;5070204;28;20049;-84
2023/11/17 01:45:14;;;;;;;7.38;4.57;;;;;;;7.67;49.94;101235.94;5069694;28;20045;-83
2023/11/17 01:47:43;;;;;;;8.70;5.05;;;;;;;7.65;50.08;101235.16;5055736;28;20033;-83
2023/11/17 01:50:12;;;;;;;8.27;4.70;;;;;;;7.63;50.04;101235.25;5071474;28;20156;-83
2023/11/17 01:52:42;;;;;;;7.85;5.43;;;;;;;7.62;50.22;101246.25;5054241;28;20033;-83
2023/11/17 01:55:11;;;;;;;9.10;5.10;;;;;;;7.61;50.25;101253.56;5059581;28;20037;-82
2023/11/17 01:57:42;;;;;;;8.30;5.32;;;;;;;7.58;50.06;101257.38;5069698;28;20049;-83
2023/11/17 02:00:14;;;;;;;7.40;5.05;;;;;;;7.57;49.86;101257.47;5055915;28;20049;-83
2023/11/17 02:02:45;;;;;;;8.70;5.22;;;;;;;7.54;49.75;101253.09;5054593;28;20059;-83
2023/11/17 02:05:17;;;;;;;9.95;5.53;;;;;;;7.52;50.03;101265.94;5071656;28;20059;-84
2023/11/17 02:08:00;;;;;;;8.98;5.60;;;;;;;7.53;49.96;101269.53;5071298;28;20526;-84
2023/11/17 02:10:36;;;;;;;9.10;6.05;;;;;;;7.47;49.86;101270.84;5053385;28;20573;-83
2023/11/17 02:13:12;;;;;;;10.55;5.47;;;;;;;7.48;50.24;101267.16;5058604;28;20037;-83
2023/11/17 02:15:43;;;;;;;8.38;5.68;;;;;;;7.45;50.03;101264.63;5053432;28;20055;-83
2023/11/17 02:18:15;;;;;;;8.90;5.75;;;;;;;7.45;50.24;101269.19;5071759;28;20041;-84
2023/11/17 02:20:45;;;;;;;8.83;5.90;;;;;;;7.40;50.15;101269.53;5071207;28;20052;-85
2023/11/17 02:23:17;;;;;;;10.15;5.60;;;;;;;7.40;50.46;101266.81;5051076;28;20318;-84
2023/11/17 02:25:56;;;;;;;9.50;5.70;;;;;;;7.41;50.14;101276.72;5068718;28;20064;-86
2023/11/17 02:28:34;;;;;;;8.52;5.18;;;;;;;7.39;50.14;101267.78;5070144;28;20045;-84
2023/11/17 02:31:15;;;;;;;8.20;5.40;;;;;;;7.39;49.90;101273.22;5052635;28;20037;-84
2023/11/17 02:33:45;;;;;;;8.10;4.93;;;;;;;7.36;50.23;101270.69;5053722;28;20037;-85
2023/11/17 02:36:18;;;;;;;8.98;5.57;;;;;;;7.37;50.18;101279.75;5068277;28;20142;-84
2023/11/17 02:38:50;;;;;;;;;;;;;;;7.12;50.73;101275.94;5070351;28;20669;-85
2023/11/17 02:41:29;;;;;;;8.18;4.65;;;;;;;7.31;49.99;101286.47;5048542;28;19966;-85
2023/11/17 02:43:58;;;;;;;9.15;5.45;;;;;;;7.35;50.14;101273.53;5052737;28;20052;-83
2023/11/17 02:46:32;;;;;;;11.85;6.40;;;;;;;7.33;49.77;101280.94;5058527;28;20041;-85
2023/11/17 02:49:01;;;;;;;8.43;5.57;;;;;;;7.33;50.13;101279.09;5053365;28;20568;-85
2023/11/17 02:51:33;;;;;;;8.25;5.65;;;;;;;7.33;49.95;101276.38;5069649;28;20067;-84
2023/11/17 02:54:08;;;;;;;8.57;5.43;;;;;;;7.32;49.91;101280.06;5053739;28;20044;-84
2023/11/17 02:56:39;;;;;;;9.07;5.88;;;;;;;7.31;50.03;101277.44;5054318;28;20041;-85
2023/11/17 02:59:09;;;;;;;7.80;5.28;;;;;;;7.30;50.18;101276.56;5055468;28;20045;-84
2023/11/17 03:01:39;;;;;;;8.27;5.95;;;;;;;7.30;49.89;101284.72;5057310;28;20135;-84
2023/11/17 03:04:13;;;;;;;8.70;5.68;;;;;;;7.29;49.66;101285.69;5071120;28;20050;-84
2023/11/17 03:06:46;;;;;;;10.48;6.43;;;;;;;7.26;49.88;101280.47;5078001;28;20048;-84
2023/11/17 03:09:15;;;;;;;9.60;6.25;;;;;;;7.24;49.83;101290.59;5082875;28;20037;-82
2023/11/17 03:11:44;;;;;;;8.98;5.82;;;;;;;7.24;49.69;101296.03;5073024;28;20044;-82
2023/11/17 03:14:12;;;;;;;8.45;5.38;;;;;;;7.21;49.69;101290.78;5086582;28;20622;-84
2023/11/17 03:16:41;;;;;;;10.55;6.35;;;;;;;7.18;49.78;101281.00;5052532;28;20234;-84
2023/11/17 03:19:11;;;;;;;8.43;5.38;;;;;;;7.16;49.66;101284.78;5063691;28;20100;-83
2023/11/17 03:21:41;;;;;;;8.40;5.65;;;;;;;7.11;49.50;101285.06;5059591;28;20103;-84
2023/11/17 03:24:17;;;;;;;10.32;5.68;;;;;;;7.10;49.37;101290.66;5057935;28;20060;-84
2023/11/17 03:26:46;;;;;;;8.20;5.35;;;;;;;7.04;49.64;101286.47;5053878;28;20251;-83
2023/11/17 03:29:14;;;;;;;8.23;5.47;;;;;;;7.03;49.49;101300.16;5064477;28;20053;-83
2023/11/17 03:31:48;;;;;;;9.45;5.70;;;;;;;7.00;49.89;101294.94;5064301;28;20049;-83
2023/11/17 03:34:18;;;;;;;9.82;5.72;;;;;;;6.98;50.01;101303.19;5068252;28;20033;-84
2023/11/17 03:36:46;;;;;;;9.50;6.10;;;;;;;6.94;49.93;101295.34;5053405;28;20040;-85
2023/11/17 03:39:14;;;;;;;9.55;5.53;;;;;;;6.93;49.71;101299.03;5063207;28;20128;-84
2023/11/17 03:41:42;;;;;;;9.63;5.47;;;;;;;6.91;49.95;101303.72;5050850;28;20269;-84
2023/11/17 03:44:10;;;;;;;7.60;5.07;;;;;;;6.89;50.04;101305.66;5049198;28;20045;-83
2023/11/17 03:46:38;;;;;;;7.75;4.93;;;;;;;6.89;50.04;101302.94;5048618;28;20060;-83
2023/11/17 03:49:08;;;;;;;7.88;5.10;;;;;;;6.88;49.94;101303.91;5056530;28;20390;-83
2023/11/17 03:51:37;;;;;;;7.53;4.70;;;;;;;6.87;49.92;101308.47;5052444;28;20041;-83
2023/11/17 03:54:06;;;;;;;8.13;5.65;;;;;;;6.87;49.66;101303.03;5063543;28;20040;-83
2023/11/17 03:56:34;;;;;;;9.25;5.40;;;;;;;6.88;49.98;101302.06;5062179;28;20048;-82
2023/11/17 03:59:03;;;;;;;7.88;4.85;;;;;;;6.87;49.74;101300.28;5048155;28;20053;-83
2023/11/17 04:01:32;;;;;;;6.85;4.70;;;;;;;6.87;50.09;101303.03;5047903;28;20523;-83
2023/11/17 04:04:00;;;;;;;6.72;4.72;;;;;;;6.87;49.73;101299.41;5052584;28;20048;-85
2023/11/17 04:06:29;;;;;;;10.15;5.80;;;;;;;6.87;49.71;101311.19;5072175;28;20071;-84
2023/11/17 04:08:58;;;;;;;10.32;5.60;;;;;;;6.84;49.62;101313.25;5058075;28;20098;-84
2023/11/17 04:11:26;;;;;;;9.40;5.75;;;;;;;6.84;49.71;101316.84;5066522;28;20497;-84
2023/11/17 04:13:54;;;;;;;7.53;5.10;;;;;;;6.82;49.59;101319.66;5056916;28;20045;-83
2023/11/17 04:16:21;;;;;;;7.63;5.32;;;;;;;6.82;49.84;101324.22;5051350;28;20046;-84
2023/11/17 04:18:49;;;;;;;10.25;5.53;;;;;;;6.82;49.91;101337.81;5058404;28;20045;-83
2023/11/17 04:21:18;;;;;;;9.38;5.32;;;;;;;6.81;49.71;101331.50;5051198;28;20524;-84
2023/11/17 04:23:47;;;;;;;10.07;5.25;;;;;;;6.82;50.09;101324.22;5067293;28;20141;-83
2023/11/17 04:26:15;;;;;;;7.35;5.20;;;;;;;6.80;49.67;101323.44;5066813;28;20048;-85
2023/11/17 04:28:43;;;;;;;9.38;5.22;;;;;;;6.79;49.43;101321.69;5052442;28;20049;-85
2023/11/17 04:31:11;;;;;;;9.77;6.07;;;;;;;6.76;49.61;101324.63;5053993;28;20577;-85
2023/11/17 04:33:39;;;;;;;10.43;6.22;;;;;;;6.74;49.58;101326.53;5069892;28;20049;-86
2023/11/17 04:36:10;;;;;;;9.60;6.13;;;;;;;6.70;49.49;101325.84;5071429;28;20037;-86
2023/11/17 04:38:39;;;;;;;9.52;6.03;;;;;;;6.66;49.46;101328.88;5058575;28;20139;-84
2023/11/17 04:41:08;;;;;;;11.07;5.82;;;;;;;6.67;49.81;101336.06;5056736;28;20037;-84
2023/11/17 04:43:36;;;;;;;10.57;6.07;;;;;;;6.61;49.47;101337.31;5054792;28;20075;-83
2023/11/17 04:46:06;;;;;;;12.70;6.38;;;;;;;6.59;50.03;101346.53;5054055;28;20147;-86
2023/11/17 04:48:35;;;;;;;10.02;6.10;;;;;;;6.57;49.89;101340.31;5057838;28;20036;-85
2023/11/17 04:51:04;;;;;;;12.50;7.18;;;;;;;6.55;49.89;101340.41;5069593;28;20045;-82
2023/11/17 04:53:32;;;;;;;12.55;6.72;;;;;;;6.56;50.14;101352.16;5075248;28;20124;-83
2023/11/17 04:56:00;;;;;;;12.23;6.50;;;;;;;6.55;50.01;101359.44;5077249;28;20057;-84
2023/11/17 04:58:29;;;;;;;14.00;7.05;;;;;;;6.55;49.86;101351.28;5051095;28;20047;-85
2023/11/17 05:00:57;;;;;;;13.13;7.75;;;;;;;6.53;50.13;101355.94;5049294;28;20041;-83
2023/11/17 05:03:25;;;;;;;17.92;7.15;;;;;;;6.52;50.23;101354.22;5049025;28;20364;-84
2023/11/17 05:05:53;;;;;;;12.20;7.20;;;;;;;6.54;50.55;101348.66;5066931;28;20049;-84
2023/11/17 05:08:21;;;;;;;14.70;7.82;;;;;;;6.52;50.49;101347.91;5071126;28;20045;-82
2023/11/17 05:10:49;;;;;;;15.40;7.55;;;;;;;6.52;50.63;101346.06;5053550;28;20041;-84
2023/11/17 05:13:18;;;;;;;18.02;8.38;;;;;;;6.51;50.73;101351.59;5066604;28;20046;-83
2023/11/17 05:15:47;;;;;;;15.02;7.57;;;;;;;6.52;50.81;101354.22;5051648;28;20463;-83
2023/11/17 05:18:15;;;;;;;16.65;7.50;;;;;;;6.51;50.58;101355.19;5052689;28;20667;-85
2023/11/17 05:20:43;;;;;;;15.60;7.47;;;;;;;6.52;50.84;101353.34;5059394;28;20493;-83
2023/11/17 05:23:12;;;;;;;17.38;8.05;;;;;;;6.52;50.46;101346.06;5070184;28;20531;-82
2023/11/17 05:25:40;;;;;;;14.27;7.97;;;;;;;6.52;50.66;101356.94;5050074;28;20052;-84
2023/11/17 05:28:09;;;;;;;15.40;8.48;;;;;;;6.52;50.90;101354.22;5065288;28;20041;-84
2023/11/17 05:30:37;;;;;;;16.75;8.02;;;;;;;6.53;50.85;101361.38;5051665;28;20106;-84
2023/11/17 05:33:06;;;;;;;13.82;7.93;;;;;;;6.54;51.16;101354.09;5069907;28;20136;-83
2023/11/17 05:35:37;;;;;;;18.60;8.73;;;;;;;6.54;51.25;101357.69;5066616;28;20132;-84
2023/11/17 05:38:05;;;;;;;16.98;8.75;;;;;;;6.56;51.05;101361.19;5051497;28;20122;-84
2023/11/17 05:40:34;;;;;;;19.38;9.10;;;;;;;6.57;51.09;101360.25;5042118;28;20059;-83
2023/11/17 05:43:06;;;;;;;18.70;8.38;;;;;;;6.58;51.14;101363.84;5061145;28;20045;-84
2023/11/17 05:45:34;;;;;;;16.92;7.88;;;;;;;6.59;51.48;101357.44;5049856;28;20171;-84
2023/11/17 05:48:05;;;;;;;17.85;8.82;;;;;;;6.63;51.25;101368.00;5066824;28;20523;-85
2023/11/17 05:50:35;;;;;;;15.88;8.60;;;;;;;6.68;51.16;101367.72;5071518;28;20100;-84
2023/11/17 05:53:04;;;;;;;17.92;9.32;;;;;;;6.66;51.40;101356.94;5065545;28;20049;-84
2023/11/17 05:55:32;;;;;;;18.05;8.77;;;;;;;6.70;51.33;101361.19;5051339;28;20037;-84
2023/11/17 05:58:02;;;;;;;12.65;7.55;;;;;;;6.72;51.47;101364.69;5049681;28;20068;-85
2023/11/17 06:00:31;;;;;;;15.20;8.60;;;;;;;6.73;51.48;101360.13;5061297;28;20051;-84
2023/11/17 06:02:59;;;;;;;13.95;8.00;;;;;;;6.75;51.60;101366.41;5052098;28;20103;-83
2023/11/17 06:05:27;;;;;;;13.07;8.00;;;;;;;6.79;51.59;101376.09;5070257;28;20041;-85
2023/11/17 06:07:56;;;;;;;13.00;7.85;;;;;;;6.84;51.49;101375.81;5050656;28;20493;-83
2023/11/17 06:10:25;;;;;;;13.80;8.30;;;;;;;6.85;51.21;101378.44;5051313;28;20412;-84
2023/11/17 06:12:53;;;;;;;16.00;9.18;;;;;;;6.86;51.04;101368.44;5067828;28;20037;-85
2023/11/17 06:15:26;;;;;;;13.63;7.75;;;;;;;6.89;50.96;101381.84;5052463;28;20505;-85
2023/11/17 06:17:56;;;;;;;14.25;8.45;;;;;;;6.89;50.87;101374.53;5048357;28;20131;-86
2023/11/17 06:20:25;;;;;;;16.10;8.95;;;;;;;6.88;51.03;101372.78;5070240;28;20053;-84
2023/11/17 06:22:53;;;;;;;16.85;8.73;;;;;;;6.90;51.09;101379.00;5059717;28;21152;-84
2023/11/17 06:25:24;;;;;;;15.43;8.38;;;;;;;6.91;51.11;101378.06;5051692;28;20125;-84
2023/11/17 06:27:52;;;;;;;15.45;9.27;;;;;;;6.93;51.04;101380.69;5073687;28;20060;-85
2023/11/17 06:30:20;;;;;;;18.25;9.27;;;;;;;6.92;50.84;101374.34;5064981;28;20041;-83
2023/11/17 06:32:48;;;;;;;16.00;9.48;;;;;;;6.91;51.23;101378.06;5068382;28;20044;-84
2023/11/17 06:35:16;;;;;;;16.83;9.70;;;;;;;6.96;51.13;101375.03;5070349;28;20048;-83
2023/11/17 06:37:44;;;;;;;17.10;9.93;;;;;;;6.94;51.09;101374.28;5051424;28;20045;-83
2023/11/17 06:40:15;;;;;;;15.88;9.77;;;;;;;6.97;50.93;101383.09;5049796;28;20075;-84
2023/11/17 06:42:48;;;;;;;17.77;9.98;;;;;;;6.98;51.50;101386.69;5065612;28;20044;-85
2023/11/17 06:45:16;;;;;;;17.55;10.10;;;;;;;6.97;51.26;101384.94;5051545;28;20099;-85
2023/11/17 06:47:46;;;;;;;17.60;10.43;;;;;;;6.98;51.54;101381.25;5048869;28;20033;-84
2023/11/17 06:50:22;;;;;;;19.45;11.32;;;;;;;6.97;51.31;101379.50;5071891;28;20492;-87
2023/11/17 06:52:50;;;;;;;21.17;11.57;;;;;;;6.95;51.10;101376.88;5047044;28;20044;-86
2023/11/17 06:55:19;;;;;;;19.00;11.05;;;;;;;6.99;51.41;101383.88;5064240;28;20126;-85
2023/11/17 06:57:48;;;;;;;22.08;12.13;;;;;;;7.00;51.33;101385.63;5049872;28;20037;-86
2023/11/17 07:00:17;;;;;;;20.50;11.40;;;;;;;7.01;51.36;101391.94;5069858;28;20075;-86
2023/11/17 07:02:45;;;;;;;21.42;11.82;;;;;;;6.98;51.33;101384.84;5066576;28;20040;-86
2023/11/17 07:05:14;;;;;;;20.42;11.73;;;;;;;6.99;51.62;101392.03;5048953;28;20105;-86
2023/11/17 07:07:42;;;;;;;19.10;11.07;;;;;;;7.00;51.56;101392.91;5049033;28;20029;-86
2023/11/17 07:10:14;;;;;;;22.13;12.68;;;;;;;7.00;51.35;101392.91;5066766;28;20069;-86
2023/11/17 07:12:44;;;;;;;20.08;11.57;;;;;;;6.95;51.81;101395.91;5064241;28;20037;-86
2023/11/17 07:15:17;;;;;;;22.88;12.25;;;;;;;6.98;51.53;101406.63;5045779;28;20041;-86
2023/11/17 07:17:46;;;;;;;21.90;12.05;;;;;;;6.96;51.68;101407.66;5049670;28;20104;-85
2023/11/17 07:20:14;;;;;;;20.55;11.50;;;;;;;6.99;51.77;101415.66;5051983;28;20098;-87
2023/11/17 07:22:42;;;;;;;22.48;11.27;;;;;;;6.99;51.41;101415.66;5063698;28;20344;-86
2023/11/17 07:25:11;;;;;;;21.55;12.00;;;;;;;6.99;51.74;101426.53;5045919;28;20048;-87
2023/11/17 07:27:43;;;;;;;23.17;12.38;;;;;;;7.00;51.81;101420.13;5057415;28;20485;-86
2023/11/17 07:30:13;;;;;;;19.35;11.60;;;;;;;6.99;51.81;101418.38;5066381;28;20133;-86
2023/11/17 07:32:43;;;;;;;21.15;11.23;;;;;;;7.02;51.82;101426.34;5047674;28;20144;-86
2023/11/17 07:35:12;;;;;;;19.23;10.68;;;;;;;6.98;51.65;101414.78;5048159;28;20091;-86
2023/11/17 07:38:12;;;;;;;;;;;;;;;;;;;;;
2023/11/17 07:40:40;;;;;;;25.30;12.50;;;;;;;6.96;51.81;101418.56;5064317;28;20129;-87
2023/11/17 07:43:09;;;;;;;24.35;13.65;;;;;;;7.00;51.59;101422.84;5047130;28;20044;-86
2023/11/17 07:45:39;;;;;;;25.65;13.13;;;;;;;6.99;51.37;101424.69;5047997;28;20041;-87
2023/11/17 07:48:09;;;;;;;27.05;13.77;;;;;;;6.99;51.65;101431.97;5049730;28;20041;-86
2023/11/17 07:50:40;;;;;;;25.20;13.35;;;;;;;6.96;51.47;101430.31;5051210;28;20040;-86
2023/11/17 07:53:08;;;;;;;23.10;11.73;;;;;;;6.91;51.21;101427.03;5051444;28;20037;-86
2023/11/17 07:55:36;;;;;;;23.92;13.15;;;;;;;6.90;51.64;101436.16;5050090;28;20079;-87
2023/11/17 07:58:09;;;;;;;23.67;12.73;;;;;;;6.88;51.70;101435.38;5061050;28;20485;-86
2023/11/17 08:00:37;;;;;;;24.25;13.90;;;;;;;6.85;51.52;101432.00;5054783;28;20044;-86
2023/11/17 08:03:05;;;;;;;22.45;12.77;;;;;;;6.84;51.41;101431.13;5053866;28;20075;-86
2023/11/17 08:05:35;;;;;;;25.20;13.55;;;;;;;6.85;51.81;101442.88;5053262;28;20041;-85
2023/11/17 08:08:03;;;;;;;24.98;13.35;;;;;;;6.81;51.56;101436.72;5070033;28;20041;-85
2023/11/17 08:10:31;;;;;;;27.65;14.07;;;;;;;6.81;51.28;101440.31;5065127;28;20056;-85
2023/11/17 08:13:03;;;;;;;27.45;14.18;;;;;;;6.79;51.48;101441.38;5083167;28;20437;-86
2023/11/17 08:15:32;;;;;;;27.23;13.48;;;;;;;6.74;51.33;101441.69;5062911;28;20044;-86
2023/11/17 08:18:01;;;;;;;25.88;13.43;;;;;;;6.73;51.37;101444.47;5063958;28;20516;-86
2023/11/17 08:20:31;;;;;;;26.13;13.63;;;;;;;6.69;51.21;101448.38;5064054;28;20041;-85
2023/11/17 08:23:00;;;;;;;25.10;13.70;;;;;;;6.67;51.38;101443.00;5062423;28;20472;-84
2023/11/17 08:25:29;;;;;;;25.40;12.98;;;;;;;6.64;51.33;101455.91;5045558;28;20049;-84
2023/11/17 08:27:58;;;;;;;25.30;12.80;;;;;;;6.59;51.24;101461.66;5059427;28;20041;-84
2023/11/17 08:30:26;;;;;;;24.95;13.68;;;;;;;6.56;51.54;101466.38;5065366;28;20034;-86
2023/11/17 08:33:07;;;;;;;25.70;13.27;;;;;;;6.52;51.49;101460.28;5064187;28;20045;-85
2023/11/17 08:35:36;;;;;;;24.38;12.20;;;;;;;6.51;51.50;101461.25;5071053;28;20083;-86
2023/11/17 08:38:06;;;;;;;23.35;12.65;;;;;;;6.50;51.59;101470.38;5075116;28;20100;-85
2023/11/17 08:40:34;;;;;;;23.98;12.10;;;;;;;6.49;51.41;101482.22;5066084;28;20045;-86
2023/11/17 08:43:05;;;;;;;25.02;12.38;;;;;;;6.46;51.96;101474.22;5066891;28;20047;-87
2023/11/17 08:45:33;;;;;;;23.17;12.75;;;;;;;6.43;51.86;101475.31;5064247;28;20121;-86
2023/11/17 08:48:02;;;;;;;25.00;12.55;;;;;;;6.47;51.86;101478.69;5049641;28;20049;-88
2023/11/17 08:50:32;;;;;;;24.90;13.07;;;;;;;6.47;51.79;101480.53;5039889;28;20041;-87
2023/11/17 08:53:00;;;;;;;26.05;13.40;;;;;;;6.46;52.32;101485.09;5066810;28;20544;-89
2023/11/17 08:55:30;;;;;;;23.92;13.18;;;;;;;6.47;51.95;101483.25;5066766;28;20048;-86
2023/11/17 08:57:58;;;;;;;28.27;13.27;;;;;;;6.48;52.23;101487.72;5044482;28;20095;-89
2023/11/17 09:00:26;;;;;;;26.67;13.55;;;;;;;6.47;52.35;101480.53;5047191;28;20045;-87
2023/11/17 09:02:54;;;;;;;24.33;13.10;;;;;;;6.50;52.53;101500.28;5047173;28;20056;-88
2023/11/17 09:05:23;;;;;;;28.42;13.63;;;;;;;6.50;52.41;101492.13;5047642;28;20033;-86
2023/11/17 09:07:52;;;;;;;28.52;14.45;;;;;;;6.52;52.42;101487.47;5038434;28;20045;-85
2023/11/17 09:10:21;;;;;;;27.45;14.45;;;;;;;6.56;52.48;101489.03;5064720;28;20069;-86
2023/11/17 09:12:51;;;;;;;30.75;14.80;;;;;;;6.60;52.82;101496.03;5061059;28;20095;-87
2023/11/17 09:15:21;;;;;;;29.20;14.80;;;;;;;6.60;52.58;101490.59;5053324;28;20441;-86
2023/11/17 09:17:51;;;;;;;34.03;16.15;;;;;;;6.63;52.84;101498.56;5051366;28;20071;-87
2023/11/17 09:20:23;;;;;;;33.45;16.05;;;;;;;6.68;52.65;101490.13;5072188;28;20508;-87
2023/11/17 09:22:52;;;;;;;38.15;16.75;;;;;;;6.69;52.57;101500.03;5067831;28;20127;-86
2023/11/17 09:25:23;;;;;;;38.83;18.67;;;;;;;6.69;52.61;101492.75;5066363;28;20570;-86
2023/11/17 09:27:56;;;;;;;39.85;18.48;;;;;;;6.74;52.48;101487.94;5069690;28;20037;-87
2023/11/17 09:30:28;;;;;;;44.72;19.45;;;;;;;6.76;52.26;101501.44;5066198;28;20505;-85
2023/11/17 09:32:57;;;;;;;39.85;18.33;;;;;;;6.76;52.42;101496.88;5066984;28;20566;-86
2023/11/17 09:35:27;;;;;;;40.55;17.42;;;;;;;6.77;52.66;101495.91;5049549;28;20033;-88
2023/11/17 09:37:58;;;;;;;34.22;17.30;;;;;;;6.77;52.16;101495.03;5049396;28;20041;-86
2023/11/17 09:40:29;;;;;;;37.30;17.77;;;;;;;6.75;52.74;101505.13;5053848;28;20384;-86
2023/11/17 09:43:00;;;;;;;37.88;18.13;;;;;;;6.82;52.27;101501.94;5067509;28;20387;-87
2023/11/17 09:45:30;;;;;;;37.35;17.77;;;;;;;6.81;52.67;101502.91;5065547;28;20052;-87
2023/11/17 09:48:01;;;;;;;38.08;18.02;;;;;;;6.84;52.45;101495.53;5073078;28;20049;-87
2023/11/17 09:50:31;;;;;;;36.42;17.27;;;;;;;6.85;52.48;101491.84;5076181;28;20033;-86
2023/11/17 09:53:01;;;;;;;34.03;18.80;;;;;;;6.84;52.34;101500.97;5072821;28;20087;-86
2023/11/17 09:55:30;;;;;;;37.70;18.58;;;;;;;6.86;52.03;101505.31;5069644;28;20623;-86
2023/11/17 09:58:02;;;;;;;34.55;18.15;;;;;;;6.88;52.16;101513.41;5067464;28;20464;-87
2023/11/17 10:00:33;;;;;;;34.93;17.23;;;;;;;6.85;52.19;101517.22;5049671;28;20041;-87
2023/11/17 10:03:03;;;;;;;33.83;17.67;;;;;;;6.86;51.83;101518.09;5051215;28;20298;-86
2023/11/17 10:05:33;;;;;;;32.70;16.65;;;;;;;6.84;52.00;101511.84;5063557;28;20033;-86
2023/11/17 10:08:05;;;;;;;31.92;16.98;;;;;;;6.87;52.05;101517.09;5050560;28;20120;-85
2023/11/17 10:10:36;;;;;;;30.08;16.35;;;;;;;6.84;52.33;101525.47;5050329;28;20520;-85
2023/11/17 10:13:10;;;;;;;31.17;16.55;;;;;;;6.84;52.55;101529.06;5063654;28;20076;-85
2023/11/17 10:15:41;;;;;;;33.90;17.13;;;;;;;6.83;52.33;101516.41;5068591;28;20127;-85
2023/11/17 10:18:13;;;;;;;34.90;18.15;;;;;;;6.87;52.08;101531.56;5064589;28;20048;-85
2023/11/17 10:20:42;;;;;;;34.10;16.63;;;;;;;6.84;52.07;101522.75;5051247;28;20045;-84
2023/11/17 10:23:10;;;;;;;34.85;17.48;;;;;;;6.83;52.18;101519.13;5066565;28;20355;-85
2023/11/17 10:25:39;;;;;;;36.00;16.73;;;;;;;6.85;51.84;101524.50;5046173;28;20389;-85
2023/11/17 10:28:09;;;;;;;31.67;17.25;;;;;;;6.85;52.18;101536.25;5048259;28;20122;-84
2023/11/17 10:30:41;;;;;;;35.53;17.27;;;;;;;6.83;52.03;101530.03;5049096;28;20049;-87
2023/11/17 10:33:15;;;;;;;35.40;18.23;;;;;;;6.82;51.92;101526.44;5066753;28;20065;-86
2023/11/17 10:35:44;;;;;;;31.00;16.35;;;;;;;6.79;51.87;101526.59;5050564;28;20090;-86
2023/11/17 10:38:16;;;;;;;35.35;18.02;;;;;;;6.81;51.75;101529.22;5048813;28;20030;-85
2023/11/17 10:40:44;;;;;;;34.50;16.87;;;;;;;6.77;51.93;101536.72;5052552;28;20137;-88
2023/11/17 10:43:15;;;;;;;33.38;16.17;;;;;;;6.78;51.82;101530.28;5066361;28;20051;-87
2023/11/17 10:45:45;;;;;;;31.67;16.42;;;;;;;6.77;51.86;101533.13;5069016;28;20503;-86
2023/11/17 10:48:14;;;;;;;32.38;16.83;;;;;;;6.77;52.25;101539.44;5048031;28;20048;-86
2023/11/17 10:50:43;;;;;;;31.33;16.60;;;;;;;6.76;51.75;101536.81;5045428;28;20066;-85
2023/11/17 10:53:19;;;;;;;31.95;16.45;;;;;;;6.75;52.11;101533.22;5047562;28;20569;-85
2023/11/17 10:55:49;;;;;;;32.28;15.57;;;;;;;6.73;52.24;101529.66;5065878;28;20539;-86
2023/11/17 10:58:19;;;;;;;27.48;14.98;;;;;;;6.73;52.38;101523.34;5050820;28;20524;-87
2023/11/17 11:00:49;;;;;;;28.38;15.18;;;;;;;6.71;52.62;101526.16;5047383;28;20398;-86
2023/11/17 11:03:18;;;;;;;26.90;14.50;;;;;;;6.71;52.48;101520.72;5046547;28;20045;-86
2023/11/17 11:05:48;;;;;;;26.20;13.98;;;;;;;6.75;52.84;101527.78;5063301;28;20037;-86
2023/11/17 11:08:18;;;;;;;27.17;14.23;;;;;;;6.77;52.58;101531.28;5070547;28;20037;-87
2023/11/17 11:10:53;;;;;;;26.88;15.18;;;;;;;6.80;52.91;101525.63;5066751;28;20626;-86
2023/11/17 11:13:28;;;;;;;26.13;14.73;;;;;;;6.82;53.19;101520.09;5060386;28;20101;-86
2023/11/17 11:16:00;;;;;;;27.58;15.07;;;;;;;6.83;52.96;101532.75;5071112;28;20037;-85
2023/11/17 11:18:32;;;;;;;27.02;15.15;;;;;;;6.84;53.04;101523.63;5050757;28;20396;-86
2023/11/17 11:21:07;;;;;;;29.33;15.30;;;;;;;6.85;53.03;101519.94;5050499;28;20318;-87
2023/11/17 11:23:43;;;;;;;29.42;15.38;;;;;;;6.86;52.81;101521.66;5054764;28;20041;-87
2023/11/17 11:26:14;;;;;;;26.98;15.27;;;;;;;6.89;53.01;101528.75;5080687;28;20053;-87
2023/11/17 11:28:46;;;;;;;27.75;15.63;;;;;;;6.88;52.82;101524.28;5069799;28;20120;-86
2023/11/17 11:43:12;;;;;;;24.15;13.50;;;;;;;6.91;53.41;101526.81;4944701;28;20042;-85
2023/11/17 11:45:42;;;;;;;26.20;14.25;;;;;;;7.00;53.36;101535.31;5016555;28;20053;-85
2023/11/17 11:48:22;;;;;;;25.10;14.15;;;;;;;7.03;53.66;101534.22;5049487;28;20440;-86
2023/11/17 11:50:54;;;;;;;26.17;15.10;;;;;;;7.03;53.51;101540.53;5058534;28;20044;-85